sensor_id;sensor_type;location;lat;lon;timestamp;temperature;humidity
810;DHT22;387;48.772;9.186;2023-06-14T00:00:18;17.80;52.80
810;DHT22;387;48.772;9.186;2023-06-14T00:02:43;17.70;53.20
810;DHT22;387;48.772;9.186;2023-06-14T00:05:09;17.50;53.70
810;DHT22;387;48.772;9.186;2023-06-14T00:07:39;17.40;54.40
810;DHT22;387;48.772;9.186;2023-06-14T00:10:09;17.20;54.50
810;DHT22;387;48.772;9.186;2023-06-14T00:12:35;17.20;54.40
810;DHT22;387;48.772;9.186;2023-06-14T00:15:00;17.10;54.80
810;DHT22;387;48.772;9.186;2023-06-14T00:17:29;17.10;54.80
810;DHT22;387;48.772;9.186;2023-06-14T00:19:58;17.10;54.40
810;DHT22;387;48.772;9.186;2023-06-14T00:22:24;17.10;54.20
810;DHT22;387;48.772;9.186;2023-06-14T00:24:53;17.20;54.20
810;DHT22;387;48.772;9.186;2023-06-14T00:27:18;17.10;54.40
810;DHT22;387;48.772;9.186;2023-06-14T00:29:44;17.20;54.80
810;DHT22;387;48.772;9.186;2023-06-14T00:32:10;17.20;55.30
810;DHT22;387;48.772;9.186;2023-06-14T00:34:35;17.20;55.30
810;DHT22;387;48.772;9.186;2023-06-14T00:37:01;17.10;55.70
810;DHT22;387;48.772;9.186;2023-06-14T00:39:26;17.00;55.80
810;DHT22;387;48.772;9.186;2023-06-14T00:41:52;17.00;56.10
810;DHT22;387;48.772;9.186;2023-06-14T00:44:18;16.80;55.70
810;DHT22;387;48.772;9.186;2023-06-14T00:46:45;16.70;56.00
810;DHT22;387;48.772;9.186;2023-06-14T00:49:12;16.70;56.00
810;DHT22;387;48.772;9.186;2023-06-14T00:51:41;16.70;56.10
810;DHT22;387;48.772;9.186;2023-06-14T00:54:06;16.60;56.90
810;DHT22;387;48.772;9.186;2023-06-14T00:56:32;16.50;57.40
810;DHT22;387;48.772;9.186;2023-06-14T00:58:58;16.40;58.00
810;DHT22;387;48.772;9.186;2023-06-14T01:01:23;16.20;58.50
810;DHT22;387;48.772;9.186;2023-06-14T01:03:49;16.10;58.80
810;DHT22;387;48.772;9.186;2023-06-14T01:06:38;16.10;59.10
810;DHT22;387;48.772;9.186;2023-06-14T01:12:02;16.20;58.80
810;DHT22;387;48.772;9.186;2023-06-14T01:14:31;16.30;58.40
810;DHT22;387;48.772;9.186;2023-06-14T01:16:58;16.30;57.80
810;DHT22;387;48.772;9.186;2023-06-14T01:19:26;16.40;57.30
810;DHT22;387;48.772;9.186;2023-06-14T01:21:54;16.40;57.00
810;DHT22;387;48.772;9.186;2023-06-14T01:24:20;16.40;55.80
810;DHT22;387;48.772;9.186;2023-06-14T01:26:53;16.40;55.40
810;DHT22;387;48.772;9.186;2023-06-14T01:29:22;16.40;55.30
810;DHT22;387;48.772;9.186;2023-06-14T01:31:49;16.30;55.30
810;DHT22;387;48.772;9.186;2023-06-14T01:34:15;16.30;56.10
810;DHT22;387;48.772;9.186;2023-06-14T01:36:43;16.30;56.40
810;DHT22;387;48.772;9.186;2023-06-14T01:39:13;16.30;57.70
810;DHT22;387;48.772;9.186;2023-06-14T01:41:39;16.40;58.40
810;DHT22;387;48.772;9.186;2023-06-14T01:44:06;16.40;57.60
810;DHT22;387;48.772;9.186;2023-06-14T01:46:32;16.30;58.20
810;DHT22;387;48.772;9.186;2023-06-14T01:48:59;16.10;59.20
810;DHT22;387;48.772;9.186;2023-06-14T01:51:24;15.90;59.70
810;DHT22;387;48.772;9.186;2023-06-14T01:53:50;15.80;60.10
810;DHT22;387;48.772;9.186;2023-06-14T01:56:16;15.60;60.90
810;DHT22;387;48.772;9.186;2023-06-14T01:58:41;15.60;61.00
810;DHT22;387;48.772;9.186;2023-06-14T02:01:07;15.60;61.00
810;DHT22;387;48.772;9.186;2023-06-14T02:03:33;15.50;59.60
810;DHT22;387;48.772;9.186;2023-06-14T02:05:59;15.50;60.10
810;DHT22;387;48.772;9.186;2023-06-14T02:08:25;15.60;61.30
810;DHT22;387;48.772;9.186;2023-06-14T02:10:51;15.60;60.60
810;DHT22;387;48.772;9.186;2023-06-14T02:13:17;15.50;60.90
810;DHT22;387;48.772;9.186;2023-06-14T02:15:42;15.50;61.30
810;DHT22;387;48.772;9.186;2023-06-14T02:18:09;15.40;61.50
810;DHT22;387;48.772;9.186;2023-06-14T02:20:35;15.40;61.30
810;DHT22;387;48.772;9.186;2023-06-14T02:23:01;15.40;61.70
810;DHT22;387;48.772;9.186;2023-06-14T02:25:27;15.40;61.20
810;DHT22;387;48.772;9.186;2023-06-14T02:27:56;15.40;60.10
810;DHT22;387;48.772;9.186;2023-06-14T02:30:21;15.40;60.40
810;DHT22;387;48.772;9.186;2023-06-14T02:32:47;15.50;61.30
810;DHT22;387;48.772;9.186;2023-06-14T02:35:14;15.40;61.90
810;DHT22;387;48.772;9.186;2023-06-14T02:37:40;15.50;62.20
810;DHT22;387;48.772;9.186;2023-06-14T02:40:06;15.30;62.50
810;DHT22;387;48.772;9.186;2023-06-14T02:42:34;15.10;63.40
810;DHT22;387;48.772;9.186;2023-06-14T02:44:59;14.90;63.90
810;DHT22;387;48.772;9.186;2023-06-14T02:47:25;14.80;64.20
810;DHT22;387;48.772;9.186;2023-06-14T02:49:51;14.80;64.50
810;DHT22;387;48.772;9.186;2023-06-14T02:52:17;14.70;64.70
810;DHT22;387;48.772;9.186;2023-06-14T02:54:42;14.60;64.80
810;DHT22;387;48.772;9.186;2023-06-14T02:57:08;14.60;65.00
810;DHT22;387;48.772;9.186;2023-06-14T02:59:34;14.60;65.10
810;DHT22;387;48.772;9.186;2023-06-14T03:02:00;14.60;65.10
810;DHT22;387;48.772;9.186;2023-06-14T03:04:26;14.60;65.30
810;DHT22;387;48.772;9.186;2023-06-14T03:06:52;14.60;65.40
810;DHT22;387;48.772;9.186;2023-06-14T03:09:19;14.60;65.60
810;DHT22;387;48.772;9.186;2023-06-14T03:11:45;14.50;65.70
810;DHT22;387;48.772;9.186;2023-06-14T03:14:11;14.60;65.10
810;DHT22;387;48.772;9.186;2023-06-14T03:16:38;14.70;64.20
810;DHT22;387;48.772;9.186;2023-06-14T03:19:04;14.60;64.40
810;DHT22;387;48.772;9.186;2023-06-14T03:21:30;14.60;64.10
810;DHT22;387;48.772;9.186;2023-06-14T03:23:55;14.60;64.40
810;DHT22;387;48.772;9.186;2023-06-14T03:26:21;14.70;64.10
810;DHT22;387;48.772;9.186;2023-06-14T03:28:47;14.70;63.90
810;DHT22;387;48.772;9.186;2023-06-14T03:31:16;14.70;64.10
810;DHT22;387;48.772;9.186;2023-06-14T03:33:42;14.70;64.40
810;DHT22;387;48.772;9.186;2023-06-14T03:36:08;14.80;64.80
810;DHT22;387;48.772;9.186;2023-06-14T03:38:33;14.80;64.80
810;DHT22;387;48.772;9.186;2023-06-14T03:40:59;14.80;65.00
810;DHT22;387;48.772;9.186;2023-06-14T03:43:25;14.80;65.10
810;DHT22;387;48.772;9.186;2023-06-14T03:45:51;14.70;65.10
810;DHT22;387;48.772;9.186;2023-06-14T03:48:16;14.80;65.10
810;DHT22;387;48.772;9.186;2023-06-14T03:50:42;14.90;65.00
810;DHT22;387;48.772;9.186;2023-06-14T03:53:08;14.90;64.20
810;DHT22;387;48.772;9.186;2023-06-14T03:55:34;15.00;64.10
810;DHT22;387;48.772;9.186;2023-06-14T03:58:00;15.00;64.20
810;DHT22;387;48.772;9.186;2023-06-14T04:00:25;14.90;64.80
810;DHT22;387;48.772;9.186;2023-06-14T04:02:52;14.80;65.30
810;DHT22;387;48.772;9.186;2023-06-14T04:05:17;14.90;65.00
810;DHT22;387;48.772;9.186;2023-06-14T04:07:45;14.80;64.80
810;DHT22;387;48.772;9.186;2023-06-14T04:10:12;14.90;65.40
810;DHT22;387;48.772;9.186;2023-06-14T04:12:38;14.90;65.30
810;DHT22;387;48.772;9.186;2023-06-14T04:15:04;15.00;65.10
810;DHT22;387;48.772;9.186;2023-06-14T04:17:32;15.10;64.50
810;DHT22;387;48.772;9.186;2023-06-14T04:20:01;15.00;64.70
810;DHT22;387;48.772;9.186;2023-06-14T04:22:27;15.10;64.80
810;DHT22;387;48.772;9.186;2023-06-14T04:24:56;15.10;65.00
810;DHT22;387;48.772;9.186;2023-06-14T04:27:23;15.00;65.40
810;DHT22;387;48.772;9.186;2023-06-14T04:29:54;14.70;66.00
810;DHT22;387;48.772;9.186;2023-06-14T04:32:28;14.60;66.70
810;DHT22;387;48.772;9.186;2023-06-14T04:35:07;14.60;66.90
810;DHT22;387;48.772;9.186;2023-06-14T04:37:32;14.60;66.70
810;DHT22;387;48.772;9.186;2023-06-14T04:39:58;14.70;66.90
810;DHT22;387;48.772;9.186;2023-06-14T04:42:24;14.80;66.40
810;DHT22;387;48.772;9.186;2023-06-14T04:44:56;15.00;65.80
810;DHT22;387;48.772;9.186;2023-06-14T04:47:22;15.00;65.60
810;DHT22;387;48.772;9.186;2023-06-14T04:49:50;15.00;65.60
810;DHT22;387;48.772;9.186;2023-06-14T04:52:17;15.20;64.80
810;DHT22;387;48.772;9.186;2023-06-14T04:54:46;15.30;64.50
810;DHT22;387;48.772;9.186;2023-06-14T04:57:12;15.30;64.40
810;DHT22;387;48.772;9.186;2023-06-14T04:59:43;15.40;63.90
810;DHT22;387;48.772;9.186;2023-06-14T05:02:10;15.50;64.50
810;DHT22;387;48.772;9.186;2023-06-14T05:04:35;15.60;64.70
810;DHT22;387;48.772;9.186;2023-06-14T05:07:08;15.70;64.50
810;DHT22;387;48.772;9.186;2023-06-14T05:09:37;15.90;64.40
810;DHT22;387;48.772;9.186;2023-06-14T05:12:03;16.00;63.80
810;DHT22;387;48.772;9.186;2023-06-14T05:14:29;16.10;63.40
810;DHT22;387;48.772;9.186;2023-06-14T05:16:55;16.20;62.20
810;DHT22;387;48.772;9.186;2023-06-14T05:19:20;16.20;61.70
810;DHT22;387;48.772;9.186;2023-06-14T05:21:47;16.20;61.30
810;DHT22;387;48.772;9.186;2023-06-14T05:24:13;16.40;61.50
810;DHT22;387;48.772;9.186;2023-06-14T05:26:39;16.50;61.20
810;DHT22;387;48.772;9.186;2023-06-14T05:29:04;16.60;61.00
810;DHT22;387;48.772;9.186;2023-06-14T05:31:30;16.60;59.90
810;DHT22;387;48.772;9.186;2023-06-14T05:33:56;16.60;59.60
810;DHT22;387;48.772;9.186;2023-06-14T05:36:21;16.60;59.60
810;DHT22;387;48.772;9.186;2023-06-14T05:38:47;16.70;59.50
810;DHT22;387;48.772;9.186;2023-06-14T05:41:13;16.80;58.90
810;DHT22;387;48.772;9.186;2023-06-14T05:43:39;17.00;58.80
810;DHT22;387;48.772;9.186;2023-06-14T05:46:04;16.80;57.80
810;DHT22;387;48.772;9.186;2023-06-14T05:48:30;16.60;58.40
810;DHT22;387;48.772;9.186;2023-06-14T05:50:56;16.70;59.10
810;DHT22;387;48.772;9.186;2023-06-14T05:53:22;16.90;59.10
810;DHT22;387;48.772;9.186;2023-06-14T05:55:47;17.10;58.50
810;DHT22;387;48.772;9.186;2023-06-14T05:58:13;17.30;58.10
810;DHT22;387;48.772;9.186;2023-06-14T06:00:39;17.40;58.10
810;DHT22;387;48.772;9.186;2023-06-14T06:03:04;17.40;58.00
810;DHT22;387;48.772;9.186;2023-06-14T06:05:33;17.50;58.00
810;DHT22;387;48.772;9.186;2023-06-14T06:07:58;17.60;57.60
810;DHT22;387;48.772;9.186;2023-06-14T06:10:25;17.50;55.20
810;DHT22;387;48.772;9.186;2023-06-14T06:12:51;17.60;56.10
810;DHT22;387;48.772;9.186;2023-06-14T06:15:17;17.60;56.10
810;DHT22;387;48.772;9.186;2023-06-14T06:17:44;17.70;55.60
810;DHT22;387;48.772;9.186;2023-06-14T06:20:10;17.70;55.60
810;DHT22;387;48.772;9.186;2023-06-14T06:22:37;17.90;55.30
810;DHT22;387;48.772;9.186;2023-06-14T06:25:02;18.00;55.20
810;DHT22;387;48.772;9.186;2023-06-14T06:27:28;18.10;55.60
810;DHT22;387;48.772;9.186;2023-06-14T06:29:54;18.20;55.00
810;DHT22;387;48.772;9.186;2023-06-14T06:32:19;18.00;55.00
810;DHT22;387;48.772;9.186;2023-06-14T06:34:45;18.00;56.10
810;DHT22;387;48.772;9.186;2023-06-14T06:37:11;18.10;56.50
810;DHT22;387;48.772;9.186;2023-06-14T06:39:36;18.00;55.60
810;DHT22;387;48.772;9.186;2023-06-14T06:42:02;18.00;56.40
810;DHT22;387;48.772;9.186;2023-06-14T06:44:27;18.20;56.40
810;DHT22;387;48.772;9.186;2023-06-14T06:46:53;18.10;56.60
810;DHT22;387;48.772;9.186;2023-06-14T06:49:18;18.10;56.80
810;DHT22;387;48.772;9.186;2023-06-14T06:52:02;18.20;56.90
810;DHT22;387;48.772;9.186;2023-06-14T06:54:28;18.20;56.90
810;DHT22;387;48.772;9.186;2023-06-14T06:56:54;18.30;56.80
810;DHT22;387;48.772;9.186;2023-06-14T06:59:20;18.40;55.80
810;DHT22;387;48.772;9.186;2023-06-14T07:01:46;18.40;55.70
810;DHT22;387;48.772;9.186;2023-06-14T07:04:12;18.60;54.50
810;DHT22;387;48.772;9.186;2023-06-14T07:06:38;18.70;54.10
810;DHT22;387;48.772;9.186;2023-06-14T07:09:04;18.70;54.00
810;DHT22;387;48.772;9.186;2023-06-14T07:11:33;18.80;54.20
810;DHT22;387;48.772;9.186;2023-06-14T07:13:59;18.90;53.80
810;DHT22;387;48.772;9.186;2023-06-14T07:16:24;19.00;53.80
810;DHT22;387;48.772;9.186;2023-06-14T07:18:51;19.00;53.70
810;DHT22;387;48.772;9.186;2023-06-14T07:21:17;18.90;54.20
810;DHT22;387;48.772;9.186;2023-06-14T07:23:43;19.00;53.70
810;DHT22;387;48.772;9.186;2023-06-14T07:26:08;19.10;53.20
810;DHT22;387;48.772;9.186;2023-06-14T07:28:34;19.20;52.80
810;DHT22;387;48.772;9.186;2023-06-14T07:31:00;19.10;52.90
810;DHT22;387;48.772;9.186;2023-06-14T07:33:25;19.20;52.40
810;DHT22;387;48.772;9.186;2023-06-14T07:35:51;19.40;52.40
810;DHT22;387;48.772;9.186;2023-06-14T07:38:18;19.30;52.20
810;DHT22;387;48.772;9.186;2023-06-14T07:40:43;19.20;52.90
810;DHT22;387;48.772;9.186;2023-06-14T07:43:09;19.20;52.60
810;DHT22;387;48.772;9.186;2023-06-14T07:45:34;19.20;52.40
810;DHT22;387;48.772;9.186;2023-06-14T07:48:00;19.10;52.20
810;DHT22;387;48.772;9.186;2023-06-14T07:50:26;19.30;51.80
810;DHT22;387;48.772;9.186;2023-06-14T07:52:51;19.40;51.60
810;DHT22;387;48.772;9.186;2023-06-14T07:55:17;19.50;51.30
810;DHT22;387;48.772;9.186;2023-06-14T07:57:43;19.30;51.60
810;DHT22;387;48.772;9.186;2023-06-14T08:00:10;19.40;52.10
810;DHT22;387;48.772;9.186;2023-06-14T08:02:44;19.50;52.20
810;DHT22;387;48.772;9.186;2023-06-14T08:05:12;19.50;52.10
810;DHT22;387;48.772;9.186;2023-06-14T08:07:39;19.20;52.20
810;DHT22;387;48.772;9.186;2023-06-14T08:10:05;19.20;53.30
810;DHT22;387;48.772;9.186;2023-06-14T08:12:32;19.40;53.00
810;DHT22;387;48.772;9.186;2023-06-14T08:14:57;19.60;52.80
810;DHT22;387;48.772;9.186;2023-06-14T08:17:23;19.80;52.40
810;DHT22;387;48.772;9.186;2023-06-14T08:19:49;19.90;52.00
810;DHT22;387;48.772;9.186;2023-06-14T08:22:15;19.70;52.60
810;DHT22;387;48.772;9.186;2023-06-14T08:24:40;19.60;53.30
810;DHT22;387;48.772;9.186;2023-06-14T08:27:06;19.50;54.20
810;DHT22;387;48.772;9.186;2023-06-14T08:29:32;19.40;54.50
810;DHT22;387;48.772;9.186;2023-06-14T08:31:57;19.60;54.20
810;DHT22;387;48.772;9.186;2023-06-14T08:34:23;19.80;53.80
810;DHT22;387;48.772;9.186;2023-06-14T08:36:51;20.00;53.00
810;DHT22;387;48.772;9.186;2023-06-14T08:39:17;20.20;53.20
810;DHT22;387;48.772;9.186;2023-06-14T08:41:47;20.30;52.90
810;DHT22;387;48.772;9.186;2023-06-14T08:44:18;20.40;52.50
810;DHT22;387;48.772;9.186;2023-06-14T08:46:44;20.50;52.20
810;DHT22;387;48.772;9.186;2023-06-14T08:49:12;20.40;52.80
810;DHT22;387;48.772;9.186;2023-06-14T08:51:39;20.30;53.40
810;DHT22;387;48.772;9.186;2023-06-14T08:54:06;20.40;53.20
810;DHT22;387;48.772;9.186;2023-06-14T08:56:32;20.50;52.80
810;DHT22;387;48.772;9.186;2023-06-14T08:59:00;20.80;52.50
810;DHT22;387;48.772;9.186;2023-06-14T09:01:35;20.80;51.20
810;DHT22;387;48.772;9.186;2023-06-14T09:04:02;20.90;50.60
810;DHT22;387;48.772;9.186;2023-06-14T09:06:28;21.10;50.30
810;DHT22;387;48.772;9.186;2023-06-14T09:08:55;21.10;50.20
810;DHT22;387;48.772;9.186;2023-06-14T09:11:23;21.20;49.30
810;DHT22;387;48.772;9.186;2023-06-14T09:13:51;21.30;49.40
810;DHT22;387;48.772;9.186;2023-06-14T09:16:16;21.40;49.40
810;DHT22;387;48.772;9.186;2023-06-14T09:18:44;21.30;50.60
810;DHT22;387;48.772;9.186;2023-06-14T09:21:11;21.30;49.50
810;DHT22;387;48.772;9.186;2023-06-14T09:23:38;21.50;49.10
810;DHT22;387;48.772;9.186;2023-06-14T09:26:12;21.50;49.30
810;DHT22;387;48.772;9.186;2023-06-14T09:28:48;21.60;48.90
810;DHT22;387;48.772;9.186;2023-06-14T09:31:19;21.80;48.10
810;DHT22;387;48.772;9.186;2023-06-14T09:33:47;22.00;47.40
810;DHT22;387;48.772;9.186;2023-06-14T09:39:01;21.80;47.70
810;DHT22;387;48.772;9.186;2023-06-14T09:41:31;21.90;48.10
810;DHT22;387;48.772;9.186;2023-06-14T09:43:59;22.10;47.80
810;DHT22;387;48.772;9.186;2023-06-14T09:46:27;22.00;47.90
810;DHT22;387;48.772;9.186;2023-06-14T09:48:52;21.70;49.10
810;DHT22;387;48.772;9.186;2023-06-14T09:51:19;21.90;49.10
810;DHT22;387;48.772;9.186;2023-06-14T09:53:47;22.10;49.30
810;DHT22;387;48.772;9.186;2023-06-14T09:56:20;22.20;47.00
810;DHT22;387;48.772;9.186;2023-06-14T09:58:49;22.10;47.50
810;DHT22;387;48.772;9.186;2023-06-14T10:01:18;22.10;47.50
810;DHT22;387;48.772;9.186;2023-06-14T10:03:45;22.30;46.30
810;DHT22;387;48.772;9.186;2023-06-14T10:06:12;22.50;46.90
810;DHT22;387;48.772;9.186;2023-06-14T10:08:38;22.40;45.40
810;DHT22;387;48.772;9.186;2023-06-14T10:11:04;22.50;45.10
810;DHT22;387;48.772;9.186;2023-06-14T10:13:32;22.40;45.50
810;DHT22;387;48.772;9.186;2023-06-14T10:18:49;22.80;44.90
810;DHT22;387;48.772;9.186;2023-06-14T10:21:22;23.00;41.50
810;DHT22;387;48.772;9.186;2023-06-14T10:23:49;23.20;40.70
810;DHT22;387;48.772;9.186;2023-06-14T10:26:23;23.80;39.50
810;DHT22;387;48.772;9.186;2023-06-14T10:29:08;23.70;39.80
810;DHT22;387;48.772;9.186;2023-06-14T10:31:41;23.00;41.90
810;DHT22;387;48.772;9.186;2023-06-14T10:34:11;23.40;41.50
810;DHT22;387;48.772;9.186;2023-06-14T10:36:40;24.20;40.40
810;DHT22;387;48.772;9.186;2023-06-14T10:39:15;24.10;40.70
810;DHT22;387;48.772;9.186;2023-06-14T10:41:41;23.70;42.40
810;DHT22;387;48.772;9.186;2023-06-14T10:46:59;23.00;43.20
810;DHT22;387;48.772;9.186;2023-06-14T10:52:13;24.00;40.70
810;DHT22;387;48.772;9.186;2023-06-14T10:55:05;24.60;40.40
810;DHT22;387;48.772;9.186;2023-06-14T10:57:32;25.00;38.40
810;DHT22;387;48.772;9.186;2023-06-14T10:59:59;25.30;37.50
810;DHT22;387;48.772;9.186;2023-06-14T11:05:03;25.20;37.10
810;DHT22;387;48.772;9.186;2023-06-14T11:07:58;24.30;38.40
810;DHT22;387;48.772;9.186;2023-06-14T11:10:39;23.80;39.50
810;DHT22;387;48.772;9.186;2023-06-14T11:13:09;23.30;40.60
810;DHT22;387;48.772;9.186;2023-06-14T11:15:36;23.20;40.70
810;DHT22;387;48.772;9.186;2023-06-14T11:18:04;22.90;41.40
810;DHT22;387;48.772;9.186;2023-06-14T11:20:31;23.20;40.60
810;DHT22;387;48.772;9.186;2023-06-14T11:22:57;23.30;40.00
810;DHT22;387;48.772;9.186;2023-06-14T11:25:24;23.70;39.50
810;DHT22;387;48.772;9.186;2023-06-14T11:27:50;24.60;37.80
810;DHT22;387;48.772;9.186;2023-06-14T11:30:16;25.40;35.90
810;DHT22;387;48.772;9.186;2023-06-14T11:32:45;25.50;35.60
810;DHT22;387;48.772;9.186;2023-06-14T11:35:11;25.40;35.90
810;DHT22;387;48.772;9.186;2023-06-14T11:37:37;24.30;36.70
810;DHT22;387;48.772;9.186;2023-06-14T11:40:04;23.40;38.40
810;DHT22;387;48.772;9.186;2023-06-14T11:42:35;24.00;37.60
810;DHT22;387;48.772;9.186;2023-06-14T11:45:01;24.00;37.50
810;DHT22;387;48.772;9.186;2023-06-14T11:47:32;24.00;36.70
810;DHT22;387;48.772;9.186;2023-06-14T11:49:59;23.60;36.40
810;DHT22;387;48.772;9.186;2023-06-14T11:52:24;23.40;37.00
810;DHT22;387;48.772;9.186;2023-06-14T11:54:50;23.70;37.20
810;DHT22;387;48.772;9.186;2023-06-14T11:57:17;24.50;34.90
810;DHT22;387;48.772;9.186;2023-06-14T11:59:44;25.20;34.50
810;DHT22;387;48.772;9.186;2023-06-14T12:02:13;25.50;33.90
810;DHT22;387;48.772;9.186;2023-06-14T12:04:41;25.80;33.10
810;DHT22;387;48.772;9.186;2023-06-14T12:07:14;25.60;33.10
810;DHT22;387;48.772;9.186;2023-06-14T12:12:23;25.10;34.30
810;DHT22;387;48.772;9.186;2023-06-14T12:14:51;25.50;34.40
810;DHT22;387;48.772;9.186;2023-06-14T12:17:17;24.80;35.70
810;DHT22;387;48.772;9.186;2023-06-14T12:19:43;25.00;35.70
810;DHT22;387;48.772;9.186;2023-06-14T12:22:11;25.10;34.90
810;DHT22;387;48.772;9.186;2023-06-14T12:24:37;24.10;36.20
810;DHT22;387;48.772;9.186;2023-06-14T12:27:04;24.50;35.50
810;DHT22;387;48.772;9.186;2023-06-14T12:29:32;24.00;36.70
810;DHT22;387;48.772;9.186;2023-06-14T12:31:58;23.70;38.00
810;DHT22;387;48.772;9.186;2023-06-14T12:34:24;24.00;36.60
810;DHT22;387;48.772;9.186;2023-06-14T12:36:50;23.70;36.80
810;DHT22;387;48.772;9.186;2023-06-14T12:39:16;23.50;37.20
810;DHT22;387;48.772;9.186;2023-06-14T12:41:42;23.80;36.80
810;DHT22;387;48.772;9.186;2023-06-14T12:44:08;24.40;36.00
810;DHT22;387;48.772;9.186;2023-06-14T12:46:34;24.80;35.60
810;DHT22;387;48.772;9.186;2023-06-14T12:49:00;25.00;35.30
810;DHT22;387;48.772;9.186;2023-06-14T12:51:26;24.90;35.70
810;DHT22;387;48.772;9.186;2023-06-14T12:53:52;24.50;36.80
810;DHT22;387;48.772;9.186;2023-06-14T12:56:18;24.30;37.00
810;DHT22;387;48.772;9.186;2023-06-14T12:58:43;24.10;37.90
810;DHT22;387;48.772;9.186;2023-06-14T13:01:09;24.40;37.00
810;DHT22;387;48.772;9.186;2023-06-14T13:03:35;25.20;35.60
810;DHT22;387;48.772;9.186;2023-06-14T13:06:01;24.80;36.20
810;DHT22;387;48.772;9.186;2023-06-14T13:08:27;24.80;35.30
810;DHT22;387;48.772;9.186;2023-06-14T13:10:53;24.80;35.90
810;DHT22;387;48.772;9.186;2023-06-14T13:13:19;25.60;33.90
810;DHT22;387;48.772;9.186;2023-06-14T13:15:44;25.00;34.80
810;DHT22;387;48.772;9.186;2023-06-14T13:18:11;25.00;35.10
810;DHT22;387;48.772;9.186;2023-06-14T13:20:39;24.40;35.50
810;DHT22;387;48.772;9.186;2023-06-14T13:23:05;24.50;36.30
810;DHT22;387;48.772;9.186;2023-06-14T13:25:36;25.40;34.70
810;DHT22;387;48.772;9.186;2023-06-14T13:28:04;25.40;34.70
810;DHT22;387;48.772;9.186;2023-06-14T13:30:30;25.80;33.90
810;DHT22;387;48.772;9.186;2023-06-14T13:32:57;25.30;34.30
810;DHT22;387;48.772;9.186;2023-06-14T13:35:23;26.50;32.90
810;DHT22;387;48.772;9.186;2023-06-14T13:37:50;26.10;34.00
810;DHT22;387;48.772;9.186;2023-06-14T13:40:15;26.00;34.40
810;DHT22;387;48.772;9.186;2023-06-14T13:42:41;25.80;35.20
810;DHT22;387;48.772;9.186;2023-06-14T13:45:08;25.50;35.30
810;DHT22;387;48.772;9.186;2023-06-14T13:47:33;25.60;35.50
810;DHT22;387;48.772;9.186;2023-06-14T13:49:59;25.40;35.10
810;DHT22;387;48.772;9.186;2023-06-14T13:52:25;25.80;35.50
810;DHT22;387;48.772;9.186;2023-06-14T13:54:50;26.00;34.80
810;DHT22;387;48.772;9.186;2023-06-14T13:57:17;26.70;33.60
810;DHT22;387;48.772;9.186;2023-06-14T13:59:43;26.20;33.60
810;DHT22;387;48.772;9.186;2023-06-14T14:02:10;25.30;34.90
810;DHT22;387;48.772;9.186;2023-06-14T14:04:36;25.70;34.50
810;DHT22;387;48.772;9.186;2023-06-14T14:07:04;25.80;34.70
810;DHT22;387;48.772;9.186;2023-06-14T14:09:31;26.10;34.30
810;DHT22;387;48.772;9.186;2023-06-14T14:11:58;26.00;34.50
810;DHT22;387;48.772;9.186;2023-06-14T14:14:24;25.20;35.50
810;DHT22;387;48.772;9.186;2023-06-14T14:16:50;25.20;35.70
810;DHT22;387;48.772;9.186;2023-06-14T14:19:21;24.80;36.30
810;DHT22;387;48.772;9.186;2023-06-14T14:21:47;25.20;36.30
810;DHT22;387;48.772;9.186;2023-06-14T14:24:13;25.30;36.30
810;DHT22;387;48.772;9.186;2023-06-14T14:26:39;25.60;36.00
810;DHT22;387;48.772;9.186;2023-06-14T14:29:05;26.00;35.30
810;DHT22;387;48.772;9.186;2023-06-14T14:31:31;25.90;36.00
810;DHT22;387;48.772;9.186;2023-06-14T14:33:57;26.20;35.70
810;DHT22;387;48.772;9.186;2023-06-14T14:36:23;26.10;35.70
810;DHT22;387;48.772;9.186;2023-06-14T14:38:48;25.90;36.20
810;DHT22;387;48.772;9.186;2023-06-14T14:41:14;25.90;36.00
810;DHT22;387;48.772;9.186;2023-06-14T14:43:39;26.50;34.80
810;DHT22;387;48.772;9.186;2023-06-14T14:46:05;27.80;32.80
810;DHT22;387;48.772;9.186;2023-06-14T14:48:31;28.20;31.90
810;DHT22;387;48.772;9.186;2023-06-14T14:50:57;28.70;30.40
810;DHT22;387;48.772;9.186;2023-06-14T14:53:22;28.50;30.90
810;DHT22;387;48.772;9.186;2023-06-14T14:55:49;28.30;30.80
810;DHT22;387;48.772;9.186;2023-06-14T14:58:15;27.50;31.90
810;DHT22;387;48.772;9.186;2023-06-14T15:00:47;27.90;30.70
810;DHT22;387;48.772;9.186;2023-06-14T15:03:13;27.90;31.90
810;DHT22;387;48.772;9.186;2023-06-14T15:05:39;27.50;31.60
810;DHT22;387;48.772;9.186;2023-06-14T15:08:05;27.40;32.40
810;DHT22;387;48.772;9.186;2023-06-14T15:10:37;28.80;30.30
810;DHT22;387;48.772;9.186;2023-06-14T15:13:03;28.50;30.90
810;DHT22;387;48.772;9.186;2023-06-14T15:15:28;28.40;30.40
810;DHT22;387;48.772;9.186;2023-06-14T15:17:54;27.30;32.70
810;DHT22;387;48.772;9.186;2023-06-14T15:20:20;27.40;33.20
810;DHT22;387;48.772;9.186;2023-06-14T15:22:45;27.20;33.30
810;DHT22;387;48.772;9.186;2023-06-14T15:25:11;26.20;35.10
810;DHT22;387;48.772;9.186;2023-06-14T15:27:36;27.00;34.30
810;DHT22;387;48.772;9.186;2023-06-14T15:30:02;27.60;32.80
810;DHT22;387;48.772;9.186;2023-06-14T15:32:28;26.10;34.30
810;DHT22;387;48.772;9.186;2023-06-14T15:34:54;26.00;35.20
810;DHT22;387;48.772;9.186;2023-06-14T15:37:19;26.10;34.90
810;DHT22;387;48.772;9.186;2023-06-14T15:39:45;26.30;34.90
810;DHT22;387;48.772;9.186;2023-06-14T15:42:10;26.40;34.90
810;DHT22;387;48.772;9.186;2023-06-14T15:44:36;25.70;36.00
810;DHT22;387;48.772;9.186;2023-06-14T15:47:02;26.00;36.00
810;DHT22;387;48.772;9.186;2023-06-14T15:49:28;26.80;34.30
810;DHT22;387;48.772;9.186;2023-06-14T15:51:55;26.90;33.90
810;DHT22;387;48.772;9.186;2023-06-14T15:54:20;26.20;35.10
810;DHT22;387;48.772;9.186;2023-06-14T15:56:46;25.80;35.70
810;DHT22;387;48.772;9.186;2023-06-14T15:59:12;25.60;35.90
810;DHT22;387;48.772;9.186;2023-06-14T16:01:37;24.80;37.20
810;DHT22;387;48.772;9.186;2023-06-14T16:04:03;24.80;37.50
810;DHT22;387;48.772;9.186;2023-06-14T16:06:28;24.80;37.50
810;DHT22;387;48.772;9.186;2023-06-14T16:08:54;24.80;37.10
810;DHT22;387;48.772;9.186;2023-06-14T16:11:20;24.40;37.60
810;DHT22;387;48.772;9.186;2023-06-14T16:13:46;24.30;37.50
810;DHT22;387;48.772;9.186;2023-06-14T16:16:11;24.30;37.50
810;DHT22;387;48.772;9.186;2023-06-14T16:18:37;24.50;37.60
810;DHT22;387;48.772;9.186;2023-06-14T16:21:03;24.90;36.70
810;DHT22;387;48.772;9.186;2023-06-14T16:23:34;25.10;36.20
810;DHT22;387;48.772;9.186;2023-06-14T16:26:00;25.60;35.60
810;DHT22;387;48.772;9.186;2023-06-14T16:28:25;25.60;35.30
810;DHT22;387;48.772;9.186;2023-06-14T16:30:51;26.00;34.70
810;DHT22;387;48.772;9.186;2023-06-14T16:33:17;25.60;35.20
810;DHT22;387;48.772;9.186;2023-06-14T16:35:42;25.40;36.20
810;DHT22;387;48.772;9.186;2023-06-14T16:38:08;24.90;37.40
810;DHT22;387;48.772;9.186;2023-06-14T16:40:34;25.30;37.40
810;DHT22;387;48.772;9.186;2023-06-14T16:42:59;25.70;36.70
810;DHT22;387;48.772;9.186;2023-06-14T16:45:25;25.20;37.10
810;DHT22;387;48.772;9.186;2023-06-14T16:47:51;24.80;38.20
810;DHT22;387;48.772;9.186;2023-06-14T16:50:16;24.80;38.00